Terminal Aerodrome Forecast
Issued by NWS

Home | Current Version | Previous Version | Text Only | Print | Product List | Glossary On
Versions: 1 2 3 4 5 6 7 8 9 10 11 12 13 14 15 16 17 18 19 20 21 22 23 24 25 26 27 28 29 30 31 32 33 34 35 36 37 38 39 40 41 42 43 44 45 46 47 48 49 50
901
FTUS41 KALY 261740 AAE
TAFPSF
TAF AMD
KPSF 261740Z 2618/2718 19006KT P6SM SCT250
     FM270300 20008KT P6SM SCT050
     FM270500 21008KT P6SM BKN120
     FM270900 21007KT P6SM BKN020
     FM271500 23006KT 6SM -SHRA OVC020=

USA.gov is the U.S. government's official web portal to all federal, state and local government web resources and services.